Time,TemperatureF,DewpointF,PressureIn,WindDirection,WindDirectionDegrees,WindSpeedMPH,WindSpeedGustMPH,Humidity,HourlyPrecipIn,Conditions,Clouds,dailyrainin,SoftwareType,DateUTC
2013-03-01 07:35:00,15.2,9.9,29.83,ENE,68,5.1,6.2,79,0.00,,,-99.99,VWS V12.07,2013-03-01 13:35:00,
2013-03-01 07:40:00,15.2,9.9,29.83,NE,45,6.4,6.4,79,0.00,,,-99.99,VWS V12.07,2013-03-01 13:40:00,
2013-03-01 07:45:00,15.2,9.9,29.83,ENE,68,10.5,10.5,79,0.00,,,-99.99,VWS V12.07,2013-03-01 13:45:00,
2013-03-01 07:50:00,15.2,9.9,29.83,NE,45,4.9,10.5,79,0.00,,,-99.99,VWS V12.07,2013-03-01 13:50:00,
2013-03-01 07:55:00,15.2,9.9,29.83,NE,45,5.1,10.5,79,0.00,,,-99.99,VWS V12.07,2013-03-01 13:55:00,
2013-03-01 08:00:00,15.2,9.9,29.83,NE,45,2.9,10.5,79,0.00,,,-99.99,VWS V12.07,2013-03-01 14:00:00,
2013-03-01 08:05:00,15.2,9.9,29.83,NNE,22,4.9,4.9,79,0.00,,,-99.99,VWS V12.07,2013-03-01 14:05:00,
2013-03-01 08:10:00,15.2,9.9,29.83,NE,45,2.4,7.6,79,0.00,,,-99.99,VWS V12.07,2013-03-01 14:10:00,
2013-03-01 08:15:00,15.4,10.1,29.83,NE,45,9.1,9.1,79,0.00,,,-99.99,VWS V12.07,2013-03-01 14:15:00,
2013-03-01 08:25:00,15.6,10.0,29.83,NE,45,4.6,9.1,78,0.00,,,-99.99,VWS V12.07,2013-03-01 14:25:00,
2013-03-01 08:30:00,15.6,10.0,29.83,NE,45,6.0,9.1,78,0.00,,,-99.99,VWS V12.07,2013-03-01 14:30:00,
2013-03-01 08:35:00,15.6,10.0,29.83,NE,45,2.9,7.6,78,0.00,,,-99.99,VWS V12.07,2013-03-01 14:35:00,
2013-03-01 08:40:00,15.8,10.2,29.83,NE,45,6.0,7.6,78,0.00,,,-99.99,VWS V12.07,2013-03-01 14:40:00,
2013-03-01 08:50:00,15.9,10.3,29.83,NE,45,4.4,9.3,78,0.00,,,-99.99,VWS V12.07,2013-03-01 14:50:00,
2013-03-01 08:55:00,16.1,10.5,29.83,North,0,3.1,9.3,78,0.00,,,-99.99,VWS V12.07,2013-03-01 14:55:00,
2013-03-01 09:05:00,16.5,10.6,29.84,NE,45,6.0,7.8,77,0.00,,,-99.99,VWS V12.07,2013-03-01 15:05:00,
2013-03-01 09:10:00,16.7,10.8,29.84,NNE,22,3.3,7.8,77,0.00,,,-99.99,VWS V12.07,2013-03-01 15:10:00,
2013-03-01 09:15:00,16.8,10.9,29.83,NE,45,4.6,7.8,77,0.00,,,-99.99,VWS V12.07,2013-03-01 15:15:00,
2013-03-01 09:20:00,17.2,11.2,29.84,NE,45,8.5,8.5,77,0.00,,,-99.99,VWS V12.07,2013-03-01 15:20:00,
2013-03-01 09:25:00,17.4,11.4,29.84,NE,45,7.8,8.5,77,0.00,,,-99.99,VWS V12.07,2013-03-01 15:25:00,
2013-03-01 09:35:00,17.4,11.1,29.84,NE,45,6.4,6.4,76,0.00,,,-99.99,VWS V12.07,2013-03-01 15:35:00,
2013-03-01 09:40:00,17.7,11.4,29.84,NNE,22,4.6,6.4,76,0.00,,,-99.99,VWS V12.07,2013-03-01 15:40:00,
2013-03-01 09:45:00,18.3,12.0,29.84,ENE,68,5.8,6.4,76,0.00,,,-99.99,VWS V12.07,2013-03-01 15:45:00,
2013-03-01 09:55:00,18.6,12.0,29.84,ENE,68,2.2,7.8,75,0.00,,,-99.99,VWS V12.07,2013-03-01 15:55:00,
2013-03-01 10:00:00,19.2,12.6,29.84,NE,45,4.4,8.5,75,0.00,,,-99.99,VWS V12.07,2013-03-01 16:00:00,
2013-03-01 10:05:00,19.5,12.6,29.85,NE,45,7.8,7.8,74,0.00,,,-99.99,VWS V12.07,2013-03-01 16:05:00,
2013-03-01 10:10:00,19.5,12.6,29.84,NE,45,8.7,8.7,74,0.00,,,-99.99,VWS V12.07,2013-03-01 16:10:00,
2013-03-01 10:15:00,19.5,12.3,29.85,NE,45,2.2,10.2,73,0.00,,,-99.99,VWS V12.07,2013-03-01 16:15:00,
2013-03-01 10:20:00,19.5,12.3,29.85,North,0,5.5,5.5,73,0.00,,,-99.99,VWS V12.07,2013-03-01 16:20:00,
2013-03-01 10:30:00,19.4,11.9,29.85,NE,45,5.1,8.9,72,0.00,,,-99.99,VWS V12.07,2013-03-01 16:30:00,
2013-03-01 10:35:00,19.4,11.9,29.84,NE,45,7.6,7.6,72,0.00,,,-99.99,VWS V12.07,2013-03-01 16:35:00,
2013-03-01 10:40:00,19.2,11.7,29.85,NE,45,3.1,7.6,72,0.00,,,-99.99,VWS V12.07,2013-03-01 16:40:00,
2013-03-01 10:45:00,19.5,12.0,29.84,NE,45,4.6,7.6,72,0.00,,,-99.99,VWS V12.07,2013-03-01 16:45:00,
2013-03-01 10:50:00,19.5,12.0,29.85,NE,45,4.2,4.6,72,0.00,,,-99.99,VWS V12.07,2013-03-01 16:50:00,
2013-03-01 10:55:00,19.7,12.1,29.85,NE,45,3.8,4.6,72,0.00,,,-99.99,VWS V12.07,2013-03-01 16:55:00,
2013-03-01 11:05:00,20.1,12.2,29.85,NE,45,3.5,7.8,71,0.00,,,-99.99,VWS V12.07,2013-03-01 17:05:00,
2013-03-01 11:10:00,20.3,12.4,29.84,NNE,22,1.7,7.8,71,0.00,,,-99.99,VWS V12.07,2013-03-01 17:10:00,
2013-03-01 11:15:00,20.4,12.5,29.84,NE,45,5.8,7.8,71,0.00,,,-99.99,VWS V12.07,2013-03-01 17:15:00,
2013-03-01 11:20:00,21.0,13.1,29.84,NE,45,6.0,6.0,71,0.00,,,-99.99,VWS V12.07,2013-03-01 17:20:00,
2013-03-01 11:25:00,21.3,13.4,29.84,NNE,22,7.3,7.3,71,0.00,,,-99.99,VWS V12.07,2013-03-01 17:25:00,
2013-03-01 11:30:00,21.5,13.2,29.85,North,0,1.5,9.6,70,0.00,,,-99.99,VWS V12.07,2013-03-01 17:30:00,
2013-03-01 11:35:00,21.9,13.6,29.84,NW,315,0.0,3.1,70,0.00,,,-99.99,VWS V12.07,2013-03-01 17:35:00,
2013-03-01 11:40:00,22.1,13.8,29.84,NE,45,5.3,5.3,70,0.00,,,-99.99,VWS V12.07,2013-03-01 17:40:00,
2013-03-01 11:45:00,22.6,14.3,29.84,NNE,22,3.3,5.3,70,0.00,,,-99.99,VWS V12.07,2013-03-01 17:45:00,
2013-03-01 11:50:00,22.6,14.0,29.84,NE,45,5.3,5.3,69,0.00,,,-99.99,VWS V12.07,2013-03-01 17:50:00,
2013-03-01 12:00:00,22.8,14.2,29.84,NNE,22,8.9,8.9,69,0.00,,,-99.99,VWS V12.07,2013-03-01 18:00:00,
2013-03-01 12:05:00,22.8,14.2,29.84,NE,45,0.0,8.9,69,0.00,,,-99.99,VWS V12.07,2013-03-01 18:05:00,
2013-03-01 12:10:00,22.8,14.2,29.84,NNE,22,3.8,8.9,69,0.00,,,-99.99,VWS V12.07,2013-03-01 18:10:00,
2013-03-01 12:15:00,23.1,14.1,29.84,NW,315,2.6,8.9,68,0.00,,,-99.99,VWS V12.07,2013-03-01 18:15:00,
2013-03-01 12:20:00,23.5,14.5,29.84,NE,45,5.8,5.8,68,0.00,,,-99.99,VWS V12.07,2013-03-01 18:20:00,
2013-03-01 12:25:00,23.5,14.2,29.84,NE,45,5.5,5.8,67,0.00,,,-99.99,VWS V12.07,2013-03-01 18:25:00,
2013-03-01 12:30:00,23.5,14.2,29.84,NE,45,6.9,6.9,67,0.00,,,-99.99,VWS V12.07,2013-03-01 18:30:00,
2013-03-01 12:50:00,23.7,14.0,29.83,NE,45,11.6,11.6,66,0.00,,,-99.99,VWS V12.07,2013-03-01 18:50:00,
2013-03-01 12:55:00,23.7,14.0,29.83,NE,45,3.3,11.6,66,0.00,,,-99.99,VWS V12.07,2013-03-01 18:55:00,
2013-03-01 13:00:00,23.7,14.0,29.83,NE,45,1.7,11.6,66,0.00,,,-99.99,VWS V12.07,2013-03-01 19:00:00,
2013-03-01 13:05:00,24.0,14.3,29.83,NNE,22,4.9,5.5,66,0.00,,,-99.99,VWS V12.07,2013-03-01 19:05:00,
2013-03-01 13:10:00,24.0,14.0,29.82,NE,45,7.3,7.3,65,0.00,,,-99.99,VWS V12.07,2013-03-01 19:10:00,
2013-03-01 13:15:00,24.0,14.0,29.82,NE,45,0.0,7.6,65,0.00,,,-99.99,VWS V12.07,2013-03-01 19:15:00,
2013-03-01 13:20:00,24.4,14.3,29.82,NE,45,4.4,6.0,65,0.00,,,-99.99,VWS V12.07,2013-03-01 19:20:00,
2013-03-01 13:25:00,24.4,14.3,29.82,NE,45,4.6,6.0,65,0.00,,,-99.99,VWS V12.07,2013-03-01 19:25:00,
2013-03-01 13:30:00,24.6,14.2,29.82,NE,45,5.1,6.0,64,0.00,,,-99.99,VWS V12.07,2013-03-01 19:30:00,
2013-03-01 13:35:00,24.6,14.2,29.82,North,0,4.0,5.1,64,0.00,,,-99.99,VWS V12.07,2013-03-01 19:35:00,
2013-03-01 13:40:00,24.6,14.2,29.81,NE,45,3.5,6.4,64,0.00,,,-99.99,VWS V12.07,2013-03-01 19:40:00,
2013-03-01 13:45:00,24.6,14.2,29.81,ENE,68,3.1,10.5,64,0.00,,,-99.99,VWS V12.07,2013-03-01 19:45:00,
2013-03-01 13:50:00,24.6,14.2,29.81,NE,45,5.1,5.1,64,0.00,,,-99.99,VWS V12.07,2013-03-01 19:50:00,
2013-03-01 13:55:00,24.6,13.8,29.81,NE,45,0.8,6.9,63,0.00,,,-99.99,VWS V12.07,2013-03-01 19:55:00,
2013-03-01 14:00:00,24.9,14.1,29.81,NE,45,7.3,8.0,63,0.00,,,-99.99,VWS V12.07,2013-03-01 20:00:00,
2013-03-01 14:05:00,24.9,14.1,29.81,NE,45,5.8,7.3,63,0.00,,,-99.99,VWS V12.07,2013-03-01 20:05:00,
2013-03-01 14:10:00,25.1,14.3,29.81,NE,45,4.4,7.3,63,0.00,,,-99.99,VWS V12.07,2013-03-01 20:10:00,
2013-03-01 14:15:00,25.3,14.5,29.81,NNE,22,2.0,7.3,63,0.00,,,-99.99,VWS V12.07,2013-03-01 20:15:00,
2013-03-01 14:20:00,25.5,14.3,29.81,NE,45,0.4,5.3,62,0.00,,,-99.99,VWS V12.07,2013-03-01 20:20:00,
2013-03-01 14:25:00,25.5,14.3,29.81,NE,45,5.1,6.0,62,0.00,,,-99.99,VWS V12.07,2013-03-01 20:25:00,
2013-03-01 14:30:00,25.5,14.3,29.81,NE,45,4.2,6.0,62,0.00,,,-99.99,VWS V12.07,2013-03-01 20:30:00,
2013-03-01 14:35:00,25.5,14.3,29.81,ENE,68,3.3,5.8,62,0.00,,,-99.99,VWS V12.07,2013-03-01 20:35:00,
2013-03-01 14:40:00,25.5,13.9,29.81,NE,45,5.3,5.8,61,0.00,,,-99.99,VWS V12.07,2013-03-01 20:40:00,
2013-03-01 14:45:00,25.7,14.1,29.81,NE,45,6.0,6.0,61,0.00,,,-99.99,VWS V12.07,2013-03-01 20:45:00,
2013-03-01 14:55:00,25.8,14.2,29.81,WNW,292,0.0,6.0,61,0.00,,,-99.99,VWS V12.07,2013-03-01 20:55:00,
2013-03-01 15:00:00,26.2,14.2,29.81,NE,45,4.9,6.0,60,0.00,,,-99.99,VWS V12.07,2013-03-01 21:00:00,
2013-03-01 15:05:00,26.2,14.2,29.81,NE,45,7.3,7.3,60,0.00,,,-99.99,VWS V12.07,2013-03-01 21:05:00,
2013-03-01 15:10:00,26.2,13.8,29.81,NNE,22,2.0,7.3,59,0.00,,,-99.99,VWS V12.07,2013-03-01 21:10:00,
2013-03-01 15:15:00,26.2,13.8,29.81,NNE,22,2.9,7.3,59,0.00,,,-99.99,VWS V12.07,2013-03-01 21:15:00,
2013-03-01 15:20:00,26.2,13.4,29.81,NE,45,5.5,5.5,58,0.00,,,-99.99,VWS V12.07,2013-03-01 21:20:00,
2013-03-01 15:30:00,26.2,13.4,29.80,NE,45,8.5,8.5,58,0.00,,,-99.99,VWS V12.07,2013-03-01 21:30:00,
2013-03-01 15:35:00,26.0,12.9,29.81,NE,45,3.8,8.5,57,0.00,,,-99.99,VWS V12.07,2013-03-01 21:35:00,
2013-03-01 15:40:00,25.8,13.1,29.81,NE,45,2.2,8.5,58,0.00,,,-99.99,VWS V12.07,2013-03-01 21:40:00,
2013-03-01 15:45:00,26.0,13.3,29.81,North,0,5.3,8.5,58,0.00,,,-99.99,VWS V12.07,2013-03-01 21:45:00,
2013-03-01 15:55:00,26.0,12.9,29.81,NE,45,6.7,6.7,57,0.00,,,-99.99,VWS V12.07,2013-03-01 21:55:00,
2013-03-01 16:00:00,26.0,12.9,29.81,NNE,22,0.0,6.7,57,0.00,,,-99.99,VWS V12.07,2013-03-01 22:00:00,
2013-03-01 16:05:00,26.0,12.9,29.81,NE,45,5.5,5.5,57,0.00,,,-99.99,VWS V12.07,2013-03-01 22:05:00,
2013-03-01 16:10:00,25.8,12.7,29.81,NE,45,6.7,6.7,57,0.00,,,-99.99,VWS V12.07,2013-03-01 22:10:00,
2013-03-01 16:15:00,25.7,12.2,29.81,NNE,22,3.5,6.7,56,0.00,,,-99.99,VWS V12.07,2013-03-01 22:15:00,
2013-03-01 16:20:00,25.5,12.0,29.81,NE,45,2.6,8.0,56,0.00,,,-99.99,VWS V12.07,2013-03-01 22:20:00,
2013-03-01 16:25:00,25.5,12.0,29.81,NE,45,5.1,8.0,56,0.00,,,-99.99,VWS V12.07,2013-03-01 22:25:00,
2013-03-01 16:30:00,25.1,11.6,29.81,NE,45,4.6,8.0,56,0.00,,,-99.99,VWS V12.07,2013-03-01 22:30:00,
2013-03-01 16:35:00,24.9,11.4,29.81,NNE,22,6.0,6.0,56,0.00,,,-99.99,VWS V12.07,2013-03-01 22:35:00,
2013-03-01 16:40:00,24.8,10.9,29.81,NE,45,4.4,6.4,55,0.00,,,-99.99,VWS V12.07,2013-03-01 22:40:00,
2013-03-01 16:45:00,24.6,10.8,29.81,NE,45,4.0,6.4,55,0.00,,,-99.99,VWS V12.07,2013-03-01 22:45:00,
2013-03-01 16:50:00,24.4,10.6,29.81,NE,45,2.0,7.3,55,0.00,,,-99.99,VWS V12.07,2013-03-01 22:50:00,
2013-03-01 16:55:00,24.0,10.2,29.81,NE,45,7.6,7.6,55,0.00,,,-99.99,VWS V12.07,2013-03-01 22:55:00,
2013-03-01 17:00:00,23.9,10.1,29.81,NNE,22,7.3,8.5,55,0.00,,,-99.99,VWS V12.07,2013-03-01 23:00:00,
2013-03-01 17:05:00,23.5,9.7,29.81,NE,45,0.0,7.3,55,0.00,,,-99.99,VWS V12.07,2013-03-01 23:05:00,
2013-03-01 17:10:00,23.5,9.7,29.81,NNE,22,4.9,7.3,55,0.00,,,-99.99,VWS V12.07,2013-03-01 23:10:00,
2013-03-01 17:15:00,23.3,9.5,29.82,NE,45,2.0,7.3,55,0.00,,,-99.99,VWS V12.07,2013-03-01 23:15:00,
2013-03-01 17:20:00,23.0,9.2,29.82,NE,45,2.4,3.3,55,0.00,,,-99.99,VWS V12.07,2013-03-01 23:20:00,
2013-03-01 17:25:00,22.8,9.1,29.82,NE,45,0.8,6.0,55,0.00,,,-99.99,VWS V12.07,2013-03-01 23:25:00,
2013-03-01 17:30:00,22.8,9.5,29.82,NE,45,2.9,6.0,56,0.00,,,-99.99,VWS V12.07,2013-03-01 23:30:00,
2013-03-01 17:35:00,22.4,9.1,29.82,NNE,22,5.5,5.5,56,0.00,,,-99.99,VWS V12.07,2013-03-01 23:35:00,
2013-03-01 17:40:00,22.1,9.2,29.82,NE,45,6.0,6.0,57,0.00,,,-99.99,VWS V12.07,2013-03-01 23:40:00,
2013-03-01 17:50:00,21.5,8.6,29.83,NE,45,0.8,6.9,57,0.00,,,-99.99,VWS V12.07,2013-03-01 23:50:00,
2013-03-01 17:55:00,21.3,8.4,29.83,NE,45,5.1,6.9,57,0.00,,,-99.99,VWS V12.07,2013-03-01 23:55:00,
2013-03-01 18:00:00,21.0,8.2,29.83,NNE,22,2.4,6.9,57,0.00,,,-99.99,VWS V12.07,2013-03-02 00:00:00,
2013-03-01 18:05:00,20.8,8.4,29.83,NE,45,7.3,7.3,58,0.00,,,-99.99,VWS V12.07,2013-03-02 00:05:00,
2013-03-01 18:10:00,20.4,8.0,29.83,NE,45,4.9,7.3,58,0.00,,,-99.99,VWS V12.07,2013-03-02 00:10:00,
2013-03-01 18:20:00,19.7,7.3,29.84,NE,45,0.0,2.6,58,0.00,,,-99.99,VWS V12.07,2013-03-02 00:20:00,
2013-03-01 18:25:00,19.5,7.5,29.84,ENE,68,0.0,4.4,59,0.00,,,-99.99,VWS V12.07,2013-03-02 00:25:00,
2013-03-01 18:35:00,19.0,7.1,29.84,NE,45,2.9,6.2,59,0.00,,,-99.99,VWS V12.07,2013-03-02 00:35:00,
2013-03-01 18:40:00,18.8,6.9,29.83,NNW,338,0.8,6.2,59,0.00,,,-99.99,VWS V12.07,2013-03-02 00:40:00,
2013-03-01 18:45:00,18.6,6.7,29.83,NNE,22,0.0,6.2,59,0.00,,,-99.99,VWS V12.07,2013-03-02 00:45:00,
2013-03-01 18:50:00,18.3,6.4,29.83,NNE,22,0.0,0.0,59,0.00,,,-99.99,VWS V12.07,2013-03-02 00:50:00,
2013-03-01 19:00:00,17.9,6.4,29.84,NE,45,3.8,4.2,60,0.00,,,-99.99,VWS V12.07,2013-03-02 01:00:00,
2013-03-01 19:05:00,17.7,6.2,29.84,NE,45,2.0,3.8,60,0.00,,,-99.99,VWS V12.07,2013-03-02 01:05:00,
2013-03-01 19:10:00,17.4,5.9,29.84,NE,45,6.2,6.2,60,0.00,,,-99.99,VWS V12.07,2013-03-02 01:10:00,
2013-03-01 19:15:00,17.2,5.7,29.84,NE,45,2.0,6.2,60,0.00,,,-99.99,VWS V12.07,2013-03-02 01:15:00,
2013-03-01 19:20:00,17.0,5.9,29.84,NE,45,1.3,4.2,61,0.00,,,-99.99,VWS V12.07,2013-03-02 01:20:00,
2013-03-01 19:25:00,16.8,5.7,29.84,NE,45,4.6,4.6,61,0.00,,,-99.99,VWS V12.07,2013-03-02 01:25:00,
2013-03-01 19:30:00,16.5,5.4,29.84,NE,45,1.1,4.6,61,0.00,,,-99.99,VWS V12.07,2013-03-02 01:30:00,
2013-03-01 19:35:00,16.5,5.4,29.84,NE,45,0.0,1.5,61,0.00,,,-99.99,VWS V12.07,2013-03-02 01:35:00,
2013-03-01 19:40:00,16.3,5.2,29.84,NE,45,2.9,2.9,61,0.00,,,-99.99,VWS V12.07,2013-03-02 01:40:00,
2013-03-01 19:45:00,16.1,5.0,29.84,NE,45,4.0,4.0,61,0.00,,,-99.99,VWS V12.07,2013-03-02 01:45:00,
2013-03-01 19:50:00,15.8,5.1,29.84,NE,45,1.7,4.0,62,0.00,,,-99.99,VWS V12.07,2013-03-02 01:50:00,
2013-03-01 19:55:00,15.6,4.9,29.85,NE,45,3.3,4.0,62,0.00,,,-99.99,VWS V12.07,2013-03-02 01:55:00,
2013-03-01 20:05:00,15.4,5.1,29.85,NE,45,0.0,4.6,63,0.00,,,-99.99,VWS V12.07,2013-03-02 02:05:00,
2013-03-01 20:10:00,15.0,4.7,29.85,ENE,68,7.1,7.1,63,0.00,,,-99.99,VWS V12.07,2013-03-02 02:10:00,
2013-03-01 20:15:00,14.9,4.9,29.85,NE,45,4.4,7.1,64,0.00,,,-99.99,VWS V12.07,2013-03-02 02:15:00,
2013-03-01 20:25:00,14.7,4.8,29.84,NE,45,5.1,5.1,64,0.00,,,-99.99,VWS V12.07,2013-03-02 02:25:00,
2013-03-01 20:30:00,14.5,4.6,29.85,NE,45,2.0,7.1,64,0.00,,,-99.99,VWS V12.07,2013-03-02 02:30:00,
2013-03-01 20:35:00,14.3,4.7,29.85,ENE,68,6.2,6.2,65,0.00,,,-99.99,VWS V12.07,2013-03-02 02:35:00,
2013-03-01 20:45:00,13.8,4.6,29.85,NNE,22,3.5,8.9,66,0.00,,,-99.99,VWS V12.07,2013-03-02 02:45:00,
2013-03-01 20:50:00,13.8,4.6,29.85,NE,45,6.2,6.2,66,0.00,,,-99.99,VWS V12.07,2013-03-02 02:50:00,
2013-03-01 21:00:00,13.6,4.7,29.86,NNE,22,1.7,6.2,67,0.00,,,-99.99,VWS V12.07,2013-03-02 03:00:00,
2013-03-01 21:05:00,13.2,4.3,29.85,NE,45,2.9,6.2,67,0.00,,,-99.99,VWS V12.07,2013-03-02 03:05:00,
2013-03-01 21:10:00,13.2,4.3,29.86,NE,45,2.9,6.2,67,0.00,,,-99.99,VWS V12.07,2013-03-02 03:10:00,
2013-03-01 21:15:00,12.9,4.0,29.86,NE,45,5.3,6.2,67,0.00,,,-99.99,VWS V12.07,2013-03-02 03:15:00,
2013-03-01 21:20:00,12.7,3.8,29.85,NE,45,2.9,5.5,67,0.00,,,-99.99,VWS V12.07,2013-03-02 03:20:00,
2013-03-01 21:25:00,12.7,4.2,29.85,NNE,22,2.2,5.5,68,0.00,,,-99.99,VWS V12.07,2013-03-02 03:25:00,
2013-03-01 21:30:00,12.5,4.0,29.85,NE,45,2.6,5.5,68,0.00,,,-99.99,VWS V12.07,2013-03-02 03:30:00,
2013-03-01 21:35:00,12.5,4.0,29.85,NNE,22,4.0,4.0,68,0.00,,,-99.99,VWS V12.07,2013-03-02 03:35:00,
2013-03-01 21:45:00,12.2,4.0,29.85,NE,45,1.3,4.0,69,0.00,,,-99.99,VWS V12.07,2013-03-02 03:45:00,
2013-03-01 21:55:00,12.0,3.8,29.84,NE,45,0.0,2.2,69,0.00,,,-99.99,VWS V12.07,2013-03-02 03:55:00,
2013-03-01 22:00:00,11.8,3.6,29.84,NE,45,0.0,2.2,69,0.00,,,-99.99,VWS V12.07,2013-03-02 04:00:00,
2013-03-01 22:05:00,11.6,3.4,29.84,NE,45,0.0,0.0,69,0.00,,,-99.99,VWS V12.07,2013-03-02 04:05:00,
2013-03-01 22:15:00,11.3,3.1,29.84,NE,45,0.0,0.0,69,0.00,,,-99.99,VWS V12.07,2013-03-02 04:15:00,
2013-03-01 22:20:00,11.1,2.9,29.84,NE,45,0.0,0.0,69,0.00,,,-99.99,VWS V12.07,2013-03-02 04:20:00,
2013-03-01 22:25:00,10.9,2.7,29.84,NE,45,0.0,0.0,69,0.00,,,-99.99,VWS V12.07,2013-03-02 04:25:00,
2013-03-01 22:35:00,10.5,2.4,29.85,NE,45,0.0,0.0,69,0.00,,,-99.99,VWS V12.07,2013-03-02 04:35:00,
2013-03-01 22:40:00,10.2,2.1,29.85,NE,45,0.0,0.0,69,0.00,,,-99.99,VWS V12.07,2013-03-02 04:40:00,
2013-03-01 22:45:00,10.0,1.9,29.84,NE,45,0.0,0.0,69,0.00,,,-99.99,VWS V12.07,2013-03-02 04:45:00,
2013-03-01 22:50:00,9.6,1.5,29.84,NE,45,0.0,0.0,69,0.00,,,-99.99,VWS V12.07,2013-03-02 04:50:00,
2013-03-01 22:55:00,9.3,1.2,29.84,NE,45,0.0,0.0,69,0.00,,,-99.99,VWS V12.07,2013-03-02 04:55:00,
2013-03-01 23:00:00,9.1,1.0,29.84,NE,45,0.0,0.0,69,0.00,,,-99.99,VWS V12.07,2013-03-02 05:00:00,
2013-03-01 23:05:00,8.9,1.1,29.84,NE,45,0.0,0.0,70,0.00,,,-99.99,VWS V12.07,2013-03-02 05:05:00,
2013-03-01 23:10:00,8.4,0.6,29.84,NE,45,0.0,0.0,70,0.00,,,-99.99,VWS V12.07,2013-03-02 05:10:00,
2013-03-01 23:15:00,8.4,0.6,29.84,NE,45,0.0,0.0,70,0.00,,,-99.99,VWS V12.07,2013-03-02 05:15:00,
2013-03-01 23:20:00,8.0,0.3,29.84,NE,45,0.0,0.0,70,0.00,,,-99.99,VWS V12.07,2013-03-02 05:20:00,
2013-03-01 23:30:00,7.5,-0.2,29.83,NE,45,0.0,0.0,70,0.00,,,-99.99,VWS V12.07,2013-03-02 05:30:00,
2013-03-01 23:35:00,7.3,-0.4,29.83,NE,45,0.0,0.0,70,0.00,,,-99.99,VWS V12.07,2013-03-02 05:35:00,
2013-03-01 23:40:00,7.1,-0.3,29.83,NE,45,0.0,0.0,71,0.00,,,-99.99,VWS V12.07,2013-03-02 05:40:00,
2013-03-01 23:45:00,6.6,-0.8,29.83,NE,45,0.0,0.0,71,0.00,,,-99.99,VWS V12.07,2013-03-02 05:45:00,
2013-03-01 23:50:00,6.4,-1.0,29.83,NE,45,0.0,0.0,71,0.00,,,-99.99,VWS V12.07,2013-03-02 05:50:00,
2013-03-01 23:55:00,6.0,-1.4,29.83,NE,45,0.0,0.0,71,0.00,,,-99.99,VWS V12.07,2013-03-02 05:55:00,